ロメ の空港の天気 - METARとTAF

ロメ空港 ( DXXX / LFW ) - トーゴ ロメ
飛行場実況気象(Metar)
観測時間04/26 16:00 GMT (04/26 16:00 UTC)
風向・風速南南西 5m/s
視程10km以上
天気現象
少しの雲 雲底高度 430m
少しの雲 雲底高度 610m
気温30℃
湿度79%
気圧1009hPa
METARDXXX 261600Z 20010KT 160V230 9999 TS FEW014 FEW020CB 30/26 Q1009 NOSIG
過去の天気等 Google飛行場航空写真 Wunderground天気予報

過去48時間のMETAR

飛行場予報(TAF)
発表時間: 4/26 11:00 GMT (4/26 11:00 UTC)
予報対象時間: 26日12時 GMT ~ 27日18時 GMT
風向・風速南南西 5m/s
視程10km以上
全天の4割程度の雲 雲底高度 400m
26日12時 GMT ~ 26日16時 GMT に一時的に
天気現象
全天の8割程度の雲 雲底高度 400m
少しの積乱雲 雲底高度 610m
26日12時 GMT から 確率 30% で
風向・風速東南東 8m/s 瞬間風速 18m/s
視程4000m
天気現象雷雨
27日0時 GMT ~ 27日2時 GMT に徐々に
風向・風速西 3m/s
TAF DXXX 261100Z 2612/2718 20010KT 9999 SCT013
TEMPO 2612/2616 TS BKN013 FEW020CB
PROB30 2612/2614 12015G35KT 4000 TSRA
BECMG 2700/2702 26005KT